sensor_id;sensor_type;location;lat;lon;timestamp;P1;durP1;ratioP1;P2;durP2;ratioP2
5827;SDS011;42583;50.240;8.444;2023-11-21T00:10:46;0.60;;;0.60;;
5827;SDS011;42583;50.240;8.444;2023-11-21T00:25:47;0.90;;;0.70;;
5827;SDS011;42583;50.240;8.444;2023-11-21T00:40:48;1.17;;;0.80;;
5827;SDS011;42583;50.240;8.444;2023-11-21T00:55:48;0.93;;;0.80;;
5827;SDS011;42583;50.240;8.444;2023-11-21T01:10:49;0.70;;;0.70;;
5827;SDS011;42583;50.240;8.444;2023-11-21T01:25:50;0.60;;;0.60;;
5827;SDS011;42583;50.240;8.444;2023-11-21T01:40:51;0.80;;;0.80;;
5827;SDS011;42583;50.240;8.444;2023-11-21T01:55:52;0.63;;;0.63;;
5827;SDS011;42583;50.240;8.444;2023-11-21T02:10:53;2.75;;;0.77;;
5827;SDS011;42583;50.240;8.444;2023-11-21T02:25:54;0.60;;;0.60;;
5827;SDS011;42583;50.240;8.444;2023-11-21T02:40:57;1.00;;;0.65;;
5827;SDS011;42583;50.240;8.444;2023-11-21T02:55:59;0.77;;;0.70;;
5827;SDS011;42583;50.240;8.444;2023-11-21T03:10:59;1.30;;;0.60;;
5827;SDS011;42583;50.240;8.444;2023-11-21T03:26:00;42.05;;;1.63;;
5827;SDS011;42583;50.240;8.444;2023-11-21T03:41:01;58.75;;;3.67;;
5827;SDS011;42583;50.240;8.444;2023-11-21T03:56:02;61.42;;;2.63;;
5827;SDS011;42583;50.240;8.444;2023-11-21T04:11:03;92.47;;;2.40;;
5827;SDS011;42583;50.240;8.444;2023-11-21T04:26:04;107.07;;;2.80;;
5827;SDS011;42583;50.240;8.444;2023-11-21T04:41:05;167.45;;;3.75;;
5827;SDS011;42583;50.240;8.444;2023-11-21T04:56:05;168.60;;;4.00;;
5827;SDS011;42583;50.240;8.444;2023-11-21T05:11:06;150.32;;;3.40;;
5827;SDS011;42583;50.240;8.444;2023-11-21T05:26:11;47.13;;;2.93;;
5827;SDS011;42583;50.240;8.444;2023-11-21T05:41:11;69.53;;;2.75;;
5827;SDS011;42583;50.240;8.444;2023-11-21T05:56:13;102.85;;;3.55;;
5827;SDS011;42583;50.240;8.444;2023-11-21T06:11:13;123.35;;;2.53;;
5827;SDS011;42583;50.240;8.444;2023-11-21T06:26:14;194.82;;;3.55;;
5827;SDS011;42583;50.240;8.444;2023-11-21T06:41:14;90.78;;;2.80;;
5827;SDS011;42583;50.240;8.444;2023-11-21T06:56:16;285.52;;;5.57;;
5827;SDS011;42583;50.240;8.444;2023-11-21T07:11:17;38.08;;;3.33;;
5827;SDS011;42583;50.240;8.444;2023-11-21T07:26:19;144.70;;;4.97;;
5827;SDS011;42583;50.240;8.444;2023-11-21T07:41:19;160.70;;;5.13;;
5827;SDS011;42583;50.240;8.444;2023-11-21T07:56:20;21.40;;;2.92;;
5827;SDS011;42583;50.240;8.444;2023-11-21T08:11:21;282.45;;;6.40;;
5827;SDS011;42583;50.240;8.444;2023-11-21T08:26:22;4.72;;;2.65;;
5827;SDS011;42583;50.240;8.444;2023-11-21T08:41:23;7.68;;;3.90;;
5827;SDS011;42583;50.240;8.444;2023-11-21T08:56:24;34.35;;;4.43;;
5827;SDS011;42583;50.240;8.444;2023-11-21T09:11:24;11.18;;;4.30;;
5827;SDS011;42583;50.240;8.444;2023-11-21T09:26:27;6.38;;;3.42;;
5827;SDS011;42583;50.240;8.444;2023-11-21T09:41:32;9.65;;;3.83;;
5827;SDS011;42583;50.240;8.444;2023-11-21T09:56:44;7.43;;;2.75;;
5827;SDS011;42583;50.240;8.444;2023-11-21T10:11:44;8.20;;;2.92;;
5827;SDS011;42583;50.240;8.444;2023-11-21T10:26:45;8.60;;;3.22;;
5827;SDS011;42583;50.240;8.444;2023-11-21T10:41:48;3.42;;;1.83;;
5827;SDS011;42583;50.240;8.444;2023-11-21T10:56:53;4.03;;;2.30;;
5827;SDS011;42583;50.240;8.444;2023-11-21T11:11:57;4.88;;;2.38;;
5827;SDS011;42583;50.240;8.444;2023-11-21T11:42:22;5.47;;;2.20;;
5827;SDS011;42583;50.240;8.444;2023-11-21T11:57:23;8.20;;;2.22;;
5827;SDS011;42583;50.240;8.444;2023-11-21T12:12:25;6.75;;;2.30;;
5827;SDS011;42583;50.240;8.444;2023-11-21T12:27:26;3.92;;;2.72;;
5827;SDS011;42583;50.240;8.444;2023-11-21T12:42:27;5.20;;;2.83;;
5827;SDS011;42583;50.240;8.444;2023-11-21T12:57:27;7.30;;;2.90;;
5827;SDS011;42583;50.240;8.444;2023-11-21T13:12:28;5.90;;;2.80;;
5827;SDS011;42583;50.240;8.444;2023-11-21T13:27:29;6.40;;;2.90;;
5827;SDS011;42583;50.240;8.444;2023-11-21T13:42:31;8.95;;;3.88;;
5827;SDS011;42583;50.240;8.444;2023-11-21T13:57:32;8.10;;;4.07;;
5827;SDS011;42583;50.240;8.444;2023-11-21T14:12:32;6.65;;;3.22;;
5827;SDS011;42583;50.240;8.444;2023-11-21T14:27:36;8.85;;;3.90;;
5827;SDS011;42583;50.240;8.444;2023-11-21T14:42:36;8.30;;;3.90;;
5827;SDS011;42583;50.240;8.444;2023-11-21T14:57:39;9.93;;;4.70;;
5827;SDS011;42583;50.240;8.444;2023-11-21T15:12:40;10.43;;;4.57;;
5827;SDS011;42583;50.240;8.444;2023-11-21T15:27:43;7.38;;;3.95;;
5827;SDS011;42583;50.240;8.444;2023-11-21T15:42:44;16.15;;;5.28;;
5827;SDS011;42583;50.240;8.444;2023-11-21T15:57:45;12.63;;;5.13;;
5827;SDS011;42583;50.240;8.444;2023-11-21T16:12:45;30.95;;;5.70;;
5827;SDS011;42583;50.240;8.444;2023-11-21T16:27:46;14.77;;;5.13;;
5827;SDS011;42583;50.240;8.444;2023-11-21T16:42:47;12.77;;;5.00;;
5827;SDS011;42583;50.240;8.444;2023-11-21T16:57:47;9.43;;;4.90;;
5827;SDS011;42583;50.240;8.444;2023-11-21T17:12:48;9.88;;;4.30;;
5827;SDS011;42583;50.240;8.444;2023-11-21T17:27:49;8.88;;;4.40;;
5827;SDS011;42583;50.240;8.444;2023-11-21T17:42:51;8.68;;;4.93;;
5827;SDS011;42583;50.240;8.444;2023-11-21T17:57:52;12.98;;;4.30;;
5827;SDS011;42583;50.240;8.444;2023-11-21T18:12:52;5.38;;;3.38;;
5827;SDS011;42583;50.240;8.444;2023-11-21T18:27:54;43.38;;;4.65;;
5827;SDS011;42583;50.240;8.444;2023-11-21T18:42:55;689.97;;;15.10;;
5827;SDS011;42583;50.240;8.444;2023-11-21T18:57:55;565.33;;;12.35;;
5827;SDS011;42583;50.240;8.444;2023-11-21T19:12:56;12.90;;;3.30;;
5827;SDS011;42583;50.240;8.444;2023-11-21T19:27:56;6.03;;;3.80;;
5827;SDS011;42583;50.240;8.444;2023-11-21T19:42:57;7.90;;;4.55;;
5827;SDS011;42583;50.240;8.444;2023-11-21T19:57:57;10.40;;;5.00;;
5827;SDS011;42583;50.240;8.444;2023-11-21T20:13:00;9.40;;;5.03;;
5827;SDS011;42583;50.240;8.444;2023-11-21T20:28:01;11.90;;;5.30;;
5827;SDS011;42583;50.240;8.444;2023-11-21T20:43:01;12.10;;;5.05;;
5827;SDS011;42583;50.240;8.444;2023-11-21T20:58:02;7.90;;;4.38;;
5827;SDS011;42583;50.240;8.444;2023-11-21T21:13:03;7.40;;;4.15;;
5827;SDS011;42583;50.240;8.444;2023-11-21T21:28:04;8.45;;;4.32;;
5827;SDS011;42583;50.240;8.444;2023-11-21T21:43:05;6.75;;;4.05;;
5827;SDS011;42583;50.240;8.444;2023-11-21T21:58:06;7.18;;;3.40;;
5827;SDS011;42583;50.240;8.444;2023-11-21T22:13:07;7.43;;;4.05;;
5827;SDS011;42583;50.240;8.444;2023-11-21T22:28:08;7.45;;;3.28;;
5827;SDS011;42583;50.240;8.444;2023-11-21T22:43:09;7.88;;;3.90;;
5827;SDS011;42583;50.240;8.444;2023-11-21T22:58:10;6.97;;;2.95;;
5827;SDS011;42583;50.240;8.444;2023-11-21T23:13:11;5.30;;;2.83;;
5827;SDS011;42583;50.240;8.444;2023-11-21T23:28:13;5.07;;;3.03;;
5827;SDS011;42583;50.240;8.444;2023-11-21T23:43:14;5.95;;;3.25;;
5827;SDS011;42583;50.240;8.444;2023-11-21T23:58:14;8.13;;;3.30;;
